Current Weather

Sydney Intl

Sydney Intl, Australia (YSSY)

Report from: Monday, May 23, 2022 7:00 PM AEST
Current time: Monday, May 23, 2022 7:14 PM AEST

Nearby weather
Weather history
Weather forecast

Temperature15.0°C (59.0°F)
Dew point14.0°C (57.2°F)
Winds 7 kts (3.6 m/s, 8.1 mph) South-Southwest (200°)
Visibility6.2 mi. (10 km)
Clouds Scattered clouds 6,300 ft. (1,920 m)
Ceiling: Overcast 8,200 ft. (2,499 m)
Altimeter30.36 in.Hg (1028 mB)
Relative humidity94 %
Density altitude-275 ft. (-84 m)
Remarks Fully automated report
Flight conditions Visual Meteorological Conditions
Raw dataYSSY 230900Z AUTO 20007KT 9999 // SCT063 OVC082 15/14 Q1028
An error has occurred. This application may no longer respond until reloaded. Reload 🗙